Terminal Aerodrome Forecast
Issued by NWS

Home | Current Version | Previous Version | Text Only | Print | Product List | Glossary On
Versions: 1 2 3 4 5 6 7 8 9 10 11 12 13 14 15 16 17 18
000
FTUS41 KBTV 300529
TAFRUT
TAF
KRUT 300529Z 3006/3106 13010KT P6SM OVC025
     FM301400 15009KT P6SM VCSH BKN050
     FM301800 17011KT P6SM -SHRA OVC040
     FM310100 15011KT 6SM -SHRA BR OVC030
     FM310300 15007KT P6SM -SHRA OVC035
     FM310400 15007KT P6SM VCSH BKN035=

USA.gov is the U.S. government's official web portal to all federal, state and local government web resources and services.